sensor_id;sensor_type;location;lat;lon;timestamp;temperature;humidity
20712;DHT22;10517;50.742;4.224;2022-09-06T00:02:30;18.00;99.90
20712;DHT22;10517;50.742;4.224;2022-09-06T00:04:57;18.00;99.90
20712;DHT22;10517;50.742;4.224;2022-09-06T00:07:22;18.10;99.90
20712;DHT22;10517;50.742;4.224;2022-09-06T00:09:48;18.10;99.90
20712;DHT22;10517;50.742;4.224;2022-09-06T00:12:13;18.00;99.90
20712;DHT22;10517;50.742;4.224;2022-09-06T00:14:39;18.00;99.90
20712;DHT22;10517;50.742;4.224;2022-09-06T00:17:05;18.00;99.90
20712;DHT22;10517;50.742;4.224;2022-09-06T00:19:31;18.00;99.90
20712;DHT22;10517;50.742;4.224;2022-09-06T00:21:56;17.90;99.90
20712;DHT22;10517;50.742;4.224;2022-09-06T00:24:22;18.00;99.90
20712;DHT22;10517;50.742;4.224;2022-09-06T00:26:47;18.00;99.90
20712;DHT22;10517;50.742;4.224;2022-09-06T00:29:13;18.00;99.90
20712;DHT22;10517;50.742;4.224;2022-09-06T00:31:39;18.10;99.90
20712;DHT22;10517;50.742;4.224;2022-09-06T00:34:04;18.10;99.90
20712;DHT22;10517;50.742;4.224;2022-09-06T00:36:30;18.10;99.90
20712;DHT22;10517;50.742;4.224;2022-09-06T00:38:55;18.00;99.90
20712;DHT22;10517;50.742;4.224;2022-09-06T00:41:21;17.90;99.90
20712;DHT22;10517;50.742;4.224;2022-09-06T00:43:47;18.00;99.90
20712;DHT22;10517;50.742;4.224;2022-09-06T00:46:16;17.90;99.90
20712;DHT22;10517;50.742;4.224;2022-09-06T00:48:44;17.90;99.90
20712;DHT22;10517;50.742;4.224;2022-09-06T00:51:12;17.90;99.90
20712;DHT22;10517;50.742;4.224;2022-09-06T00:53:38;17.90;99.90
20712;DHT22;10517;50.742;4.224;2022-09-06T00:56:04;17.80;99.90
20712;DHT22;10517;50.742;4.224;2022-09-06T00:58:30;17.80;99.90
20712;DHT22;10517;50.742;4.224;2022-09-06T01:00:55;17.90;99.90
20712;DHT22;10517;50.742;4.224;2022-09-06T01:03:23;17.80;99.90
20712;DHT22;10517;50.742;4.224;2022-09-06T01:14:14;17.80;99.90
20712;DHT22;10517;50.742;4.224;2022-09-06T01:17:02;17.80;99.90
20712;DHT22;10517;50.742;4.224;2022-09-06T01:25:33;17.70;99.90
20712;DHT22;10517;50.742;4.224;2022-09-06T01:28:30;17.80;99.90
20712;DHT22;10517;50.742;4.224;2022-09-06T01:36:34;17.70;99.90
20712;DHT22;10517;50.742;4.224;2022-09-06T01:39:01;17.80;99.90
20712;DHT22;10517;50.742;4.224;2022-09-06T01:41:27;17.80;99.90
20712;DHT22;10517;50.742;4.224;2022-09-06T01:43:54;17.70;99.90
20712;DHT22;10517;50.742;4.224;2022-09-06T01:46:33;17.70;99.90
20712;DHT22;10517;50.742;4.224;2022-09-06T01:49:07;17.80;99.90
20712;DHT22;10517;50.742;4.224;2022-09-06T01:52:00;17.80;99.90
20712;DHT22;10517;50.742;4.224;2022-09-06T01:57:39;17.60;99.90
20712;DHT22;10517;50.742;4.224;2022-09-06T02:00:11;17.70;99.90
20712;DHT22;10517;50.742;4.224;2022-09-06T02:03:13;17.60;99.90
20712;DHT22;10517;50.742;4.224;2022-09-06T02:05:53;17.70;99.90
20712;DHT22;10517;50.742;4.224;2022-09-06T02:08:38;17.70;99.90
20712;DHT22;10517;50.742;4.224;2022-09-06T02:11:06;17.70;99.90
20712;DHT22;10517;50.742;4.224;2022-09-06T02:13:41;17.70;99.90
20712;DHT22;10517;50.742;4.224;2022-09-06T02:16:10;17.70;99.90
20712;DHT22;10517;50.742;4.224;2022-09-06T02:19:02;17.70;99.90
20712;DHT22;10517;50.742;4.224;2022-09-06T02:21:34;17.70;99.90
20712;DHT22;10517;50.742;4.224;2022-09-06T02:24:04;17.70;99.90
20712;DHT22;10517;50.742;4.224;2022-09-06T02:26:35;17.70;99.90
20712;DHT22;10517;50.742;4.224;2022-09-06T02:29:02;17.70;99.90
20712;DHT22;10517;50.742;4.224;2022-09-06T02:31:36;17.70;99.90
20712;DHT22;10517;50.742;4.224;2022-09-06T02:34:03;17.70;99.90
20712;DHT22;10517;50.742;4.224;2022-09-06T02:36:29;17.70;99.90
20712;DHT22;10517;50.742;4.224;2022-09-06T02:38:55;17.70;99.90
20712;DHT22;10517;50.742;4.224;2022-09-06T02:41:24;17.70;99.90
20712;DHT22;10517;50.742;4.224;2022-09-06T02:43:50;17.80;99.90
20712;DHT22;10517;50.742;4.224;2022-09-06T02:46:15;17.70;99.90
20712;DHT22;10517;50.742;4.224;2022-09-06T02:48:41;17.70;99.90
20712;DHT22;10517;50.742;4.224;2022-09-06T02:51:08;17.70;99.90
20712;DHT22;10517;50.742;4.224;2022-09-06T02:53:34;17.70;99.90
20712;DHT22;10517;50.742;4.224;2022-09-06T02:56:00;17.70;99.90
20712;DHT22;10517;50.742;4.224;2022-09-06T02:58:26;17.60;99.90
20712;DHT22;10517;50.742;4.224;2022-09-06T03:00:52;17.60;99.90
20712;DHT22;10517;50.742;4.224;2022-09-06T03:03:18;17.70;99.90
20712;DHT22;10517;50.742;4.224;2022-09-06T03:05:48;17.60;99.90
20712;DHT22;10517;50.742;4.224;2022-09-06T03:08:18;17.50;99.90
20712;DHT22;10517;50.742;4.224;2022-09-06T03:10:52;17.60;99.90
20712;DHT22;10517;50.742;4.224;2022-09-06T03:13:18;17.60;99.90
20712;DHT22;10517;50.742;4.224;2022-09-06T03:15:48;17.60;99.90
20712;DHT22;10517;50.742;4.224;2022-09-06T03:18:14;17.60;99.90
20712;DHT22;10517;50.742;4.224;2022-09-06T03:20:39;17.60;99.90
20712;DHT22;10517;50.742;4.224;2022-09-06T03:23:05;17.50;99.90
20712;DHT22;10517;50.742;4.224;2022-09-06T03:25:30;17.50;99.90
20712;DHT22;10517;50.742;4.224;2022-09-06T03:27:56;17.50;99.90
20712;DHT22;10517;50.742;4.224;2022-09-06T03:30:21;17.50;99.90
20712;DHT22;10517;50.742;4.224;2022-09-06T03:32:47;17.50;99.90
20712;DHT22;10517;50.742;4.224;2022-09-06T03:35:13;17.40;99.90
20712;DHT22;10517;50.742;4.224;2022-09-06T03:37:39;17.30;99.90
20712;DHT22;10517;50.742;4.224;2022-09-06T03:40:05;17.30;99.90
20712;DHT22;10517;50.742;4.224;2022-09-06T03:42:31;17.30;99.90
20712;DHT22;10517;50.742;4.224;2022-09-06T03:44:56;17.30;99.90
20712;DHT22;10517;50.742;4.224;2022-09-06T03:47:22;17.20;99.90
20712;DHT22;10517;50.742;4.224;2022-09-06T03:49:48;17.10;99.90
20712;DHT22;10517;50.742;4.224;2022-09-06T03:52:14;17.10;99.90
20712;DHT22;10517;50.742;4.224;2022-09-06T03:54:40;17.00;99.90
20712;DHT22;10517;50.742;4.224;2022-09-06T03:57:05;17.00;99.90
20712;DHT22;10517;50.742;4.224;2022-09-06T03:59:31;17.00;99.90
20712;DHT22;10517;50.742;4.224;2022-09-06T04:01:57;17.00;99.90
20712;DHT22;10517;50.742;4.224;2022-09-06T04:04:22;17.00;99.90
20712;DHT22;10517;50.742;4.224;2022-09-06T04:06:48;16.90;99.90
20712;DHT22;10517;50.742;4.224;2022-09-06T04:09:13;16.90;99.90
20712;DHT22;10517;50.742;4.224;2022-09-06T04:11:40;17.00;99.90
20712;DHT22;10517;50.742;4.224;2022-09-06T04:14:05;17.00;99.90
20712;DHT22;10517;50.742;4.224;2022-09-06T04:16:31;16.90;99.90
20712;DHT22;10517;50.742;4.224;2022-09-06T04:18:56;16.90;99.90
20712;DHT22;10517;50.742;4.224;2022-09-06T04:21:24;16.90;99.90
20712;DHT22;10517;50.742;4.224;2022-09-06T04:23:49;16.80;99.90
20712;DHT22;10517;50.742;4.224;2022-09-06T04:26:15;16.80;99.90
20712;DHT22;10517;50.742;4.224;2022-09-06T04:28:41;16.80;99.90
20712;DHT22;10517;50.742;4.224;2022-09-06T04:31:07;16.80;99.90
20712;DHT22;10517;50.742;4.224;2022-09-06T04:33:34;16.80;99.90
20712;DHT22;10517;50.742;4.224;2022-09-06T04:36:02;16.70;99.90
20712;DHT22;10517;50.742;4.224;2022-09-06T04:38:30;16.80;99.90
20712;DHT22;10517;50.742;4.224;2022-09-06T04:40:58;16.80;99.90
20712;DHT22;10517;50.742;4.224;2022-09-06T04:43:24;16.70;99.90
20712;DHT22;10517;50.742;4.224;2022-09-06T04:45:49;16.70;99.90
20712;DHT22;10517;50.742;4.224;2022-09-06T04:48:15;16.70;99.90
20712;DHT22;10517;50.742;4.224;2022-09-06T04:50:41;16.70;99.90
20712;DHT22;10517;50.742;4.224;2022-09-06T04:53:07;16.60;99.90
20712;DHT22;10517;50.742;4.224;2022-09-06T04:55:33;16.70;99.90
20712;DHT22;10517;50.742;4.224;2022-09-06T04:58:00;16.70;99.90
20712;DHT22;10517;50.742;4.224;2022-09-06T05:00:30;16.80;99.90
20712;DHT22;10517;50.742;4.224;2022-09-06T05:02:56;16.70;99.90
20712;DHT22;10517;50.742;4.224;2022-09-06T05:05:22;16.70;99.90
20712;DHT22;10517;50.742;4.224;2022-09-06T05:07:52;16.70;99.90
20712;DHT22;10517;50.742;4.224;2022-09-06T05:10:18;16.70;99.90
20712;DHT22;10517;50.742;4.224;2022-09-06T05:12:50;16.80;99.90
20712;DHT22;10517;50.742;4.224;2022-09-06T05:15:20;16.80;99.90
20712;DHT22;10517;50.742;4.224;2022-09-06T05:17:46;16.80;99.90
20712;DHT22;10517;50.742;4.224;2022-09-06T05:20:12;16.80;99.90
20712;DHT22;10517;50.742;4.224;2022-09-06T05:22:39;16.80;99.90
20712;DHT22;10517;50.742;4.224;2022-09-06T05:25:06;16.80;99.90
20712;DHT22;10517;50.742;4.224;2022-09-06T05:27:31;16.90;99.90
20712;DHT22;10517;50.742;4.224;2022-09-06T05:29:57;16.90;99.90
20712;DHT22;10517;50.742;4.224;2022-09-06T05:32:23;16.90;99.90
20712;DHT22;10517;50.742;4.224;2022-09-06T05:34:48;16.90;99.90
20712;DHT22;10517;50.742;4.224;2022-09-06T05:37:14;16.90;99.90
20712;DHT22;10517;50.742;4.224;2022-09-06T05:39:39;16.90;99.90
20712;DHT22;10517;50.742;4.224;2022-09-06T05:42:05;16.90;99.90
20712;DHT22;10517;50.742;4.224;2022-09-06T05:44:40;16.90;99.90
20712;DHT22;10517;50.742;4.224;2022-09-06T05:47:05;17.00;99.90
20712;DHT22;10517;50.742;4.224;2022-09-06T05:49:32;17.00;99.90
20712;DHT22;10517;50.742;4.224;2022-09-06T05:51:57;17.00;99.90
20712;DHT22;10517;50.742;4.224;2022-09-06T05:54:23;17.00;99.90
20712;DHT22;10517;50.742;4.224;2022-09-06T05:56:48;17.10;99.90
20712;DHT22;10517;50.742;4.224;2022-09-06T05:59:14;17.20;99.90
20712;DHT22;10517;50.742;4.224;2022-09-06T06:01:51;17.30;99.90
20712;DHT22;10517;50.742;4.224;2022-09-06T06:04:17;17.30;99.90
20712;DHT22;10517;50.742;4.224;2022-09-06T06:06:44;17.40;99.90
20712;DHT22;10517;50.742;4.224;2022-09-06T06:09:10;17.50;99.90
20712;DHT22;10517;50.742;4.224;2022-09-06T06:11:36;17.60;99.90
20712;DHT22;10517;50.742;4.224;2022-09-06T06:14:02;17.60;99.90
20712;DHT22;10517;50.742;4.224;2022-09-06T06:16:28;17.60;99.90
20712;DHT22;10517;50.742;4.224;2022-09-06T06:18:54;17.60;99.90
20712;DHT22;10517;50.742;4.224;2022-09-06T06:21:22;17.70;99.90
20712;DHT22;10517;50.742;4.224;2022-09-06T06:23:50;17.80;99.90
20712;DHT22;10517;50.742;4.224;2022-09-06T06:26:17;17.90;99.90
20712;DHT22;10517;50.742;4.224;2022-09-06T06:28:43;18.00;99.90
20712;DHT22;10517;50.742;4.224;2022-09-06T06:31:09;18.10;99.90
20712;DHT22;10517;50.742;4.224;2022-09-06T06:33:36;18.20;99.90
20712;DHT22;10517;50.742;4.224;2022-09-06T06:38:40;18.40;99.90
20712;DHT22;10517;50.742;4.224;2022-09-06T06:41:08;18.40;99.90
20712;DHT22;10517;50.742;4.224;2022-09-06T06:43:34;18.40;99.90
20712;DHT22;10517;50.742;4.224;2022-09-06T06:46:04;18.40;99.90
20712;DHT22;10517;50.742;4.224;2022-09-06T06:48:30;18.50;99.90
20712;DHT22;10517;50.742;4.224;2022-09-06T06:50:56;18.50;99.90
20712;DHT22;10517;50.742;4.224;2022-09-06T06:53:21;18.50;99.90
20712;DHT22;10517;50.742;4.224;2022-09-06T06:55:47;18.50;99.90
20712;DHT22;10517;50.742;4.224;2022-09-06T06:58:16;18.60;99.90
20712;DHT22;10517;50.742;4.224;2022-09-06T07:00:43;18.60;99.90
20712;DHT22;10517;50.742;4.224;2022-09-06T07:03:09;18.70;99.90
20712;DHT22;10517;50.742;4.224;2022-09-06T07:05:35;18.70;99.90
20712;DHT22;10517;50.742;4.224;2022-09-06T07:08:02;18.80;99.90
20712;DHT22;10517;50.742;4.224;2022-09-06T07:10:28;18.80;99.90
20712;DHT22;10517;50.742;4.224;2022-09-06T07:12:53;19.00;99.90
20712;DHT22;10517;50.742;4.224;2022-09-06T07:15:19;18.90;99.90
20712;DHT22;10517;50.742;4.224;2022-09-06T07:17:44;19.00;99.90
20712;DHT22;10517;50.742;4.224;2022-09-06T07:20:10;19.10;99.90
20712;DHT22;10517;50.742;4.224;2022-09-06T07:22:37;19.20;99.90
20712;DHT22;10517;50.742;4.224;2022-09-06T07:25:06;19.40;99.90
20712;DHT22;10517;50.742;4.224;2022-09-06T07:27:33;19.30;99.90
20712;DHT22;10517;50.742;4.224;2022-09-06T07:29:58;19.40;99.90
20712;DHT22;10517;50.742;4.224;2022-09-06T07:32:24;19.50;99.90
20712;DHT22;10517;50.742;4.224;2022-09-06T07:34:50;19.50;99.90
20712;DHT22;10517;50.742;4.224;2022-09-06T07:37:16;19.60;99.90
20712;DHT22;10517;50.742;4.224;2022-09-06T07:39:41;19.60;99.90
20712;DHT22;10517;50.742;4.224;2022-09-06T07:42:07;19.60;99.90
20712;DHT22;10517;50.742;4.224;2022-09-06T07:44:33;19.70;99.90
20712;DHT22;10517;50.742;4.224;2022-09-06T07:46:59;19.80;99.90
20712;DHT22;10517;50.742;4.224;2022-09-06T07:49:27;19.90;99.90
20712;DHT22;10517;50.742;4.224;2022-09-06T07:51:53;19.90;99.90
20712;DHT22;10517;50.742;4.224;2022-09-06T07:54:19;19.90;99.90
20712;DHT22;10517;50.742;4.224;2022-09-06T07:56:44;20.00;99.90
20712;DHT22;10517;50.742;4.224;2022-09-06T07:59:10;20.10;99.90
20712;DHT22;10517;50.742;4.224;2022-09-06T08:01:37;20.30;99.90
20712;DHT22;10517;50.742;4.224;2022-09-06T08:04:05;20.30;99.90
20712;DHT22;10517;50.742;4.224;2022-09-06T08:06:36;20.40;99.90
20712;DHT22;10517;50.742;4.224;2022-09-06T08:09:05;20.40;99.90
20712;DHT22;10517;50.742;4.224;2022-09-06T08:11:32;20.50;99.90
20712;DHT22;10517;50.742;4.224;2022-09-06T08:13:59;20.50;99.90
20712;DHT22;10517;50.742;4.224;2022-09-06T08:16:27;20.50;99.90
20712;DHT22;10517;50.742;4.224;2022-09-06T08:18:57;20.70;99.90
20712;DHT22;10517;50.742;4.224;2022-09-06T08:21:25;20.70;99.90
20712;DHT22;10517;50.742;4.224;2022-09-06T08:23:53;20.80;99.90
20712;DHT22;10517;50.742;4.224;2022-09-06T08:26:20;20.90;99.90
20712;DHT22;10517;50.742;4.224;2022-09-06T08:28:47;21.00;99.90
20712;DHT22;10517;50.742;4.224;2022-09-06T08:31:16;21.10;99.90
20712;DHT22;10517;50.742;4.224;2022-09-06T08:33:42;21.20;99.90
20712;DHT22;10517;50.742;4.224;2022-09-06T08:36:09;21.30;99.90
20712;DHT22;10517;50.742;4.224;2022-09-06T08:38:36;21.30;99.90
20712;DHT22;10517;50.742;4.224;2022-09-06T08:41:39;21.30;99.90
20712;DHT22;10517;50.742;4.224;2022-09-06T08:44:16;21.40;99.90
20712;DHT22;10517;50.742;4.224;2022-09-06T08:47:08;21.60;99.90
20712;DHT22;10517;50.742;4.224;2022-09-06T08:49:44;21.80;99.90
20712;DHT22;10517;50.742;4.224;2022-09-06T09:00:22;22.20;99.90
20712;DHT22;10517;50.742;4.224;2022-09-06T09:02:51;22.30;99.90
20712;DHT22;10517;50.742;4.224;2022-09-06T09:05:28;22.40;99.90
20712;DHT22;10517;50.742;4.224;2022-09-06T09:10:45;22.70;99.90
20712;DHT22;10517;50.742;4.224;2022-09-06T09:13:25;22.80;99.90
20712;DHT22;10517;50.742;4.224;2022-09-06T09:15:52;22.90;99.90
20712;DHT22;10517;50.742;4.224;2022-09-06T09:18:23;23.10;99.90
20712;DHT22;10517;50.742;4.224;2022-09-06T09:20:50;23.20;99.90
20712;DHT22;10517;50.742;4.224;2022-09-06T09:23:15;23.20;99.90
20712;DHT22;10517;50.742;4.224;2022-09-06T09:25:41;23.40;99.90
20712;DHT22;10517;50.742;4.224;2022-09-06T09:28:20;23.40;99.90
20712;DHT22;10517;50.742;4.224;2022-09-06T09:30:52;23.30;99.90
20712;DHT22;10517;50.742;4.224;2022-09-06T09:33:24;23.20;99.90
20712;DHT22;10517;50.742;4.224;2022-09-06T09:35:51;23.20;99.90
20712;DHT22;10517;50.742;4.224;2022-09-06T09:38:26;23.20;99.90
20712;DHT22;10517;50.742;4.224;2022-09-06T09:40:54;23.30;99.90
20712;DHT22;10517;50.742;4.224;2022-09-06T09:43:32;23.50;99.90
20712;DHT22;10517;50.742;4.224;2022-09-06T09:51:30;23.50;99.90
20712;DHT22;10517;50.742;4.224;2022-09-06T09:54:02;23.70;99.90
20712;DHT22;10517;50.742;4.224;2022-09-06T09:59:14;23.90;99.90
20712;DHT22;10517;50.742;4.224;2022-09-06T10:01:41;24.00;99.90
20712;DHT22;10517;50.742;4.224;2022-09-06T10:04:10;24.20;99.90
20712;DHT22;10517;50.742;4.224;2022-09-06T10:06:36;24.20;99.90
20712;DHT22;10517;50.742;4.224;2022-09-06T10:09:14;24.30;99.90
20712;DHT22;10517;50.742;4.224;2022-09-06T10:11:52;24.20;99.90
20712;DHT22;10517;50.742;4.224;2022-09-06T10:14:26;24.30;99.90
20712;DHT22;10517;50.742;4.224;2022-09-06T10:16:52;24.20;99.90
20712;DHT22;10517;50.742;4.224;2022-09-06T10:19:24;23.90;99.90
20712;DHT22;10517;50.742;4.224;2022-09-06T10:22:02;24.00;99.90
20712;DHT22;10517;50.742;4.224;2022-09-06T10:25:04;24.10;99.90
20712;DHT22;10517;50.742;4.224;2022-09-06T10:27:34;24.50;99.90
20712;DHT22;10517;50.742;4.224;2022-09-06T10:30:06;24.30;99.90
20712;DHT22;10517;50.742;4.224;2022-09-06T10:33:07;24.30;99.90
20712;DHT22;10517;50.742;4.224;2022-09-06T10:35:37;24.40;99.90
20712;DHT22;10517;50.742;4.224;2022-09-06T10:38:19;24.60;99.90
20712;DHT22;10517;50.742;4.224;2022-09-06T10:44:08;24.30;99.90
20712;DHT22;10517;50.742;4.224;2022-09-06T10:46:36;24.30;99.90
20712;DHT22;10517;50.742;4.224;2022-09-06T10:49:10;24.50;99.90
20712;DHT22;10517;50.742;4.224;2022-09-06T10:51:43;24.70;99.90
20712;DHT22;10517;50.742;4.224;2022-09-06T10:54:16;25.10;99.90
20712;DHT22;10517;50.742;4.224;2022-09-06T10:57:04;25.50;99.90
20712;DHT22;10517;50.742;4.224;2022-09-06T11:02:34;25.50;99.90
20712;DHT22;10517;50.742;4.224;2022-09-06T11:05:13;25.50;99.90
20712;DHT22;10517;50.742;4.224;2022-09-06T11:07:43;25.90;99.90
20712;DHT22;10517;50.742;4.224;2022-09-06T11:10:29;26.10;99.90
20712;DHT22;10517;50.742;4.224;2022-09-06T11:13:31;26.30;99.90
20712;DHT22;10517;50.742;4.224;2022-09-06T11:16:04;26.60;99.90
20712;DHT22;10517;50.742;4.224;2022-09-06T11:18:49;26.80;99.90
20712;DHT22;10517;50.742;4.224;2022-09-06T11:24:35;27.00;99.90
20712;DHT22;10517;50.742;4.224;2022-09-06T11:27:19;27.30;99.90
20712;DHT22;10517;50.742;4.224;2022-09-06T11:29:48;27.40;99.90
20712;DHT22;10517;50.742;4.224;2022-09-06T11:32:38;27.70;99.90
20712;DHT22;10517;50.742;4.224;2022-09-06T11:35:07;27.50;99.90
20712;DHT22;10517;50.742;4.224;2022-09-06T11:37:40;27.40;99.90
20712;DHT22;10517;50.742;4.224;2022-09-06T11:45:21;27.80;99.90
20712;DHT22;10517;50.742;4.224;2022-09-06T11:53:32;28.70;99.90
20712;DHT22;10517;50.742;4.224;2022-09-06T11:58:47;28.10;99.90
20712;DHT22;10517;50.742;4.224;2022-09-06T12:06:26;28.10;99.90
20712;DHT22;10517;50.742;4.224;2022-09-06T12:08:55;28.30;99.90
20712;DHT22;10517;50.742;4.224;2022-09-06T12:11:42;28.60;99.90
20712;DHT22;10517;50.742;4.224;2022-09-06T12:14:31;28.50;99.90
20712;DHT22;10517;50.742;4.224;2022-09-06T12:27:55;29.00;99.90
20712;DHT22;10517;50.742;4.224;2022-09-06T12:30:37;28.80;99.90
20712;DHT22;10517;50.742;4.224;2022-09-06T12:33:12;28.70;99.90
20712;DHT22;10517;50.742;4.224;2022-09-06T12:35:39;29.00;99.90
20712;DHT22;10517;50.742;4.224;2022-09-06T12:38:06;29.00;99.90
20712;DHT22;10517;50.742;4.224;2022-09-06T12:40:43;29.10;99.90
20712;DHT22;10517;50.742;4.224;2022-09-06T12:43:11;29.60;99.90
20712;DHT22;10517;50.742;4.224;2022-09-06T12:45:46;29.80;99.90
20712;DHT22;10517;50.742;4.224;2022-09-06T12:48:33;30.10;99.90
20712;DHT22;10517;50.742;4.224;2022-09-06T12:51:19;30.30;99.90
20712;DHT22;10517;50.742;4.224;2022-09-06T12:54:00;30.60;99.90
20712;DHT22;10517;50.742;4.224;2022-09-06T12:56:28;31.00;99.90
20712;DHT22;10517;50.742;4.224;2022-09-06T12:59:21;31.30;99.90
20712;DHT22;10517;50.742;4.224;2022-09-06T13:01:57;31.40;99.90
20712;DHT22;10517;50.742;4.224;2022-09-06T13:04:26;30.80;99.90
20712;DHT22;10517;50.742;4.224;2022-09-06T13:06:54;30.20;99.90
20712;DHT22;10517;50.742;4.224;2022-09-06T13:09:21;30.80;99.90
20712;DHT22;10517;50.742;4.224;2022-09-06T13:11:50;32.00;99.90
20712;DHT22;10517;50.742;4.224;2022-09-06T13:14:20;33.60;99.90
20712;DHT22;10517;50.742;4.224;2022-09-06T13:16:49;34.80;97.20
20712;DHT22;10517;50.742;4.224;2022-09-06T13:19:30;34.80;94.30
20712;DHT22;10517;50.742;4.224;2022-09-06T13:21:57;34.60;94.40
20712;DHT22;10517;50.742;4.224;2022-09-06T13:26:58;35.00;89.30
20712;DHT22;10517;50.742;4.224;2022-09-06T13:29:29;35.90;91.10
20712;DHT22;10517;50.742;4.224;2022-09-06T13:31:56;35.80;85.40
20712;DHT22;10517;50.742;4.224;2022-09-06T13:34:25;36.00;89.60
20712;DHT22;10517;50.742;4.224;2022-09-06T13:36:52;36.00;85.60
20712;DHT22;10517;50.742;4.224;2022-09-06T13:39:36;36.30;85.80
20712;DHT22;10517;50.742;4.224;2022-09-06T13:42:07;35.10;83.20
20712;DHT22;10517;50.742;4.224;2022-09-06T13:44:35;35.30;85.60
20712;DHT22;10517;50.742;4.224;2022-09-06T13:47:01;35.10;83.00
20712;DHT22;10517;50.742;4.224;2022-09-06T13:49:27;33.40;84.60
20712;DHT22;10517;50.742;4.224;2022-09-06T13:51:57;32.70;88.60
20712;DHT22;10517;50.742;4.224;2022-09-06T13:54:23;32.40;88.20
20712;DHT22;10517;50.742;4.224;2022-09-06T13:56:49;32.00;90.50
20712;DHT22;10517;50.742;4.224;2022-09-06T13:59:16;32.60;91.80
20712;DHT22;10517;50.742;4.224;2022-09-06T14:01:44;34.50;86.90
20712;DHT22;10517;50.742;4.224;2022-09-06T14:04:16;36.40;86.20
20712;DHT22;10517;50.742;4.224;2022-09-06T14:06:45;37.30;78.80
20712;DHT22;10517;50.742;4.224;2022-09-06T14:09:11;37.30;79.70
20712;DHT22;10517;50.742;4.224;2022-09-06T14:11:36;36.40;77.50
20712;DHT22;10517;50.742;4.224;2022-09-06T14:14:02;35.60;78.80
20712;DHT22;10517;50.742;4.224;2022-09-06T14:16:28;34.60;81.00
20712;DHT22;10517;50.742;4.224;2022-09-06T14:18:54;33.50;81.40
20712;DHT22;10517;50.742;4.224;2022-09-06T14:21:20;33.00;85.50
20712;DHT22;10517;50.742;4.224;2022-09-06T14:23:49;32.20;84.80
20712;DHT22;10517;50.742;4.224;2022-09-06T14:26:19;31.80;90.80
20712;DHT22;10517;50.742;4.224;2022-09-06T14:28:45;31.40;90.20
20712;DHT22;10517;50.742;4.224;2022-09-06T14:31:13;31.00;91.30
20712;DHT22;10517;50.742;4.224;2022-09-06T14:33:39;30.80;92.10
20712;DHT22;10517;50.742;4.224;2022-09-06T14:36:13;30.50;91.70
20712;DHT22;10517;50.742;4.224;2022-09-06T14:38:40;30.20;93.50
20712;DHT22;10517;50.742;4.224;2022-09-06T14:41:09;29.90;94.60
20712;DHT22;10517;50.742;4.224;2022-09-06T14:43:35;29.30;92.90
20712;DHT22;10517;50.742;4.224;2022-09-06T14:46:03;28.90;93.30
20712;DHT22;10517;50.742;4.224;2022-09-06T14:48:29;28.60;92.80
20712;DHT22;10517;50.742;4.224;2022-09-06T14:50:55;28.40;93.10
20712;DHT22;10517;50.742;4.224;2022-09-06T14:53:22;28.20;93.40
20712;DHT22;10517;50.742;4.224;2022-09-06T14:55:47;28.20;95.20
20712;DHT22;10517;50.742;4.224;2022-09-06T14:58:13;28.20;97.20
20712;DHT22;10517;50.742;4.224;2022-09-06T15:00:40;28.20;99.60
20712;DHT22;10517;50.742;4.224;2022-09-06T15:03:06;28.20;99.90
20712;DHT22;10517;50.742;4.224;2022-09-06T15:05:31;28.20;99.90
20712;DHT22;10517;50.742;4.224;2022-09-06T15:07:57;28.20;99.90
20712;DHT22;10517;50.742;4.224;2022-09-06T15:10:22;28.10;99.90
20712;DHT22;10517;50.742;4.224;2022-09-06T15:12:49;28.00;99.90
20712;DHT22;10517;50.742;4.224;2022-09-06T15:15:15;27.90;99.90
20712;DHT22;10517;50.742;4.224;2022-09-06T15:17:40;27.80;99.90
20712;DHT22;10517;50.742;4.224;2022-09-06T15:20:06;27.80;99.90
20712;DHT22;10517;50.742;4.224;2022-09-06T15:22:32;27.70;99.90
20712;DHT22;10517;50.742;4.224;2022-09-06T15:24:59;27.60;99.90
20712;DHT22;10517;50.742;4.224;2022-09-06T15:27:24;27.40;99.90
20712;DHT22;10517;50.742;4.224;2022-09-06T15:29:50;27.30;99.90
20712;DHT22;10517;50.742;4.224;2022-09-06T15:32:16;27.30;99.90
20712;DHT22;10517;50.742;4.224;2022-09-06T15:34:41;27.30;99.90
20712;DHT22;10517;50.742;4.224;2022-09-06T15:37:07;27.50;99.90
20712;DHT22;10517;50.742;4.224;2022-09-06T15:39:32;27.70;99.90
20712;DHT22;10517;50.742;4.224;2022-09-06T15:41:58;27.80;99.90
20712;DHT22;10517;50.742;4.224;2022-09-06T15:44:24;27.80;99.90
20712;DHT22;10517;50.742;4.224;2022-09-06T15:46:55;28.20;99.90
20712;DHT22;10517;50.742;4.224;2022-09-06T15:49:29;28.60;99.90
20712;DHT22;10517;50.742;4.224;2022-09-06T15:51:57;29.20;99.90
20712;DHT22;10517;50.742;4.224;2022-09-06T15:54:25;30.40;99.90
20712;DHT22;10517;50.742;4.224;2022-09-06T15:57:10;31.40;99.90
20712;DHT22;10517;50.742;4.224;2022-09-06T15:59:36;31.60;99.70
20712;DHT22;10517;50.742;4.224;2022-09-06T16:02:03;31.70;99.90
20712;DHT22;10517;50.742;4.224;2022-09-06T16:04:29;32.80;97.40
20712;DHT22;10517;50.742;4.224;2022-09-06T16:06:54;33.10;94.10
20712;DHT22;10517;50.742;4.224;2022-09-06T16:09:21;32.70;94.70
20712;DHT22;10517;50.742;4.224;2022-09-06T16:11:47;32.30;94.20
20712;DHT22;10517;50.742;4.224;2022-09-06T16:14:14;31.50;94.70
20712;DHT22;10517;50.742;4.224;2022-09-06T16:16:41;31.50;96.70
20712;DHT22;10517;50.742;4.224;2022-09-06T16:19:08;31.30;95.60
20712;DHT22;10517;50.742;4.224;2022-09-06T16:21:36;31.50;95.10
20712;DHT22;10517;50.742;4.224;2022-09-06T16:24:04;32.00;93.60
20712;DHT22;10517;50.742;4.224;2022-09-06T16:26:36;32.30;93.60
20712;DHT22;10517;50.742;4.224;2022-09-06T16:29:04;32.40;96.50
20712;DHT22;10517;50.742;4.224;2022-09-06T16:31:30;31.60;94.00
20712;DHT22;10517;50.742;4.224;2022-09-06T16:33:56;31.40;94.90
20712;DHT22;10517;50.742;4.224;2022-09-06T16:36:22;31.20;96.10
20712;DHT22;10517;50.742;4.224;2022-09-06T16:38:49;30.80;96.10
20712;DHT22;10517;50.742;4.224;2022-09-06T16:41:26;30.70;97.70
20712;DHT22;10517;50.742;4.224;2022-09-06T16:43:53;30.00;96.70
20712;DHT22;10517;50.742;4.224;2022-09-06T16:46:24;29.50;98.00
20712;DHT22;10517;50.742;4.224;2022-09-06T16:48:54;29.10;99.60
20712;DHT22;10517;50.742;4.224;2022-09-06T16:51:23;29.00;99.90
20712;DHT22;10517;50.742;4.224;2022-09-06T16:53:49;28.80;99.90
20712;DHT22;10517;50.742;4.224;2022-09-06T16:56:21;28.60;99.90
20712;DHT22;10517;50.742;4.224;2022-09-06T16:58:52;28.20;99.90
20712;DHT22;10517;50.742;4.224;2022-09-06T17:01:18;28.00;99.90
20712;DHT22;10517;50.742;4.224;2022-09-06T17:03:44;28.00;99.90
20712;DHT22;10517;50.742;4.224;2022-09-06T17:06:11;27.80;99.90
20712;DHT22;10517;50.742;4.224;2022-09-06T17:08:37;27.60;99.90
20712;DHT22;10517;50.742;4.224;2022-09-06T17:11:22;27.50;99.90